createdAt,value
2018-05-15T00:02:34.377Z,95.32
2018-05-15T00:05:05.318Z,82.15
2018-05-15T00:07:36.168Z,84.82
2018-05-15T00:10:06.955Z,81.95
2018-05-15T00:12:37.981Z,81.70
2018-05-15T00:15:31.207Z,81.40
2018-05-15T00:18:03.063Z,84.37
2018-05-15T00:20:33.870Z,80.43
2018-05-15T00:23:05.923Z,82.30
2018-05-15T00:25:38.991Z,80.35
2018-05-15T00:28:15.050Z,81.30
2018-05-15T00:30:45.925Z,83.70
2018-05-15T00:33:16.746Z,78.53
2018-05-15T00:35:49.966Z,86.45
2018-05-15T00:38:20.974Z,91.05
2018-05-15T00:40:51.753Z,82.72
2018-05-15T00:46:32.554Z,84.00
2018-05-15T00:49:03.418Z,88.25
2018-05-15T00:51:34.159Z,89.65
2018-05-15T00:54:04.981Z,87.43
2018-05-15T00:56:47.879Z,83.50
2018-05-15T00:59:18.673Z,83.18
2018-05-15T01:01:49.157Z,74.78
2018-05-15T01:04:20.247Z,77.75
2018-05-15T01:06:51.089Z,76.65
2018-05-15T01:09:21.994Z,77.03
2018-05-15T01:11:52.736Z,80.75
2018-05-15T01:14:31.773Z,77.55
2018-05-15T01:17:02.554Z,76.30
2018-05-15T01:19:33.249Z,79.47
2018-05-15T01:22:17.225Z,81.75
2018-05-15T01:24:48.040Z,84.13
2018-05-15T01:27:18.803Z,74.07
2018-05-15T01:29:49.649Z,82.57
2018-05-15T01:32:20.189Z,80.90
2018-05-15T01:34:51.204Z,78.22
2018-05-15T01:37:21.960Z,79.57
2018-05-15T01:39:52.782Z,83.22
2018-05-15T01:42:23.462Z,76.55
2018-05-15T01:44:54.338Z,82.53
2018-05-15T01:47:41.408Z,81.60
2018-05-15T01:50:16.103Z,81.40
2018-05-15T01:52:46.682Z,87.82
2018-05-15T01:55:19.005Z,85.60
2018-05-15T01:57:50.925Z,83.40
2018-05-15T02:00:22.889Z,86.60
2018-05-15T02:02:56.054Z,85.40
2018-05-15T02:05:26.802Z,88.37
2018-05-15T02:07:57.691Z,84.75
2018-05-15T02:10:28.995Z,79.72
2018-05-15T02:12:59.734Z,80.93
2018-05-15T02:15:33.378Z,78.35
2018-05-15T02:18:05.701Z,83.68
2018-05-15T02:20:36.663Z,81.97
2018-05-15T02:26:02.490Z,76.32
2018-05-15T02:28:33.306Z,75.18
2018-05-15T02:31:06.104Z,79.45
2018-05-15T02:33:38.941Z,72.75
2018-05-15T02:36:10.986Z,75.75
2018-05-15T02:38:41.894Z,79.10
2018-05-15T02:41:12.613Z,81.80
2018-05-15T02:43:43.395Z,75.28
2018-05-15T02:46:28.494Z,76.75
2018-05-15T02:48:59.274Z,79.72
2018-05-15T02:51:30.710Z,83.47
2018-05-15T02:54:01.499Z,78.53
2018-05-15T02:56:32.231Z,81.35
2018-05-15T02:59:02.961Z,69.90
2018-05-15T03:01:33.964Z,79.85
2018-05-15T03:04:04.901Z,77.05
2018-05-15T03:06:46.716Z,85.97
2018-05-15T03:09:17.526Z,102.78
2018-05-15T03:11:48.467Z,85.65
2018-05-15T03:14:19.182Z,79.62
2018-05-15T03:16:50.378Z,80.93
2018-05-15T03:19:21.190Z,77.80
2018-05-15T03:21:52.626Z,77.35
2018-05-15T03:24:23.521Z,76.68
2018-05-15T03:27:01.923Z,74.97
2018-05-15T03:29:32.601Z,80.75
2018-05-15T03:32:04.598Z,76.60
2018-05-15T03:34:35.330Z,78.25
2018-05-15T03:37:06.133Z,76.97
2018-05-15T03:39:56.562Z,80.12
2018-05-15T03:42:27.319Z,77.70
2018-05-15T03:44:58.097Z,80.10
2018-05-15T03:47:31.041Z,83.78
2018-05-15T03:50:01.827Z,76.53
2018-05-15T03:52:32.603Z,75.70
2018-05-15T03:55:03.517Z,78.18
2018-05-15T03:57:34.586Z,73.00
2018-05-15T04:00:06.190Z,74.95
2018-05-15T04:02:50.409Z,73.40
2018-05-15T04:07:35.084Z,73.55
2018-05-15T04:10:05.935Z,75.25
2018-05-15T04:12:40.517Z,78.20
2018-05-15T04:15:15.752Z,81.00
2018-05-15T04:17:46.490Z,74.85
2018-05-15T04:20:17.466Z,78.45
2018-05-15T04:22:48.300Z,77.62
2018-05-15T04:25:19.131Z,76.45
2018-05-15T04:27:53.885Z,81.97
2018-05-15T04:30:24.604Z,75.30
2018-05-15T04:32:55.360Z,82.93
2018-05-15T04:35:44.336Z,82.65
2018-05-15T04:38:15.074Z,79.75
2018-05-15T04:40:45.985Z,82.97
2018-05-15T04:43:36.274Z,85.68
2018-05-15T04:46:07.048Z,85.72
2018-05-15T04:48:37.841Z,76.72
2018-05-15T04:51:09.246Z,79.87
2018-05-15T04:53:39.970Z,80.80
2018-05-15T04:56:11.850Z,89.82
2018-05-15T04:58:42.317Z,83.70
2018-05-15T05:01:13.206Z,85.82
2018-05-15T05:03:43.721Z,80.07
2018-05-15T05:06:14.792Z,85.43
2018-05-15T05:08:45.233Z,83.28
2018-05-15T05:11:16.018Z,83.60
2018-05-15T05:13:46.745Z,82.55
2018-05-15T05:16:17.161Z,80.68
2018-05-15T05:18:47.765Z,85.53
2018-05-15T05:21:31.608Z,88.85
2018-05-15T05:24:02.254Z,87.37
2018-05-15T05:26:33.288Z,78.53
2018-05-15T05:29:08.310Z,82.50
2018-05-15T05:31:40.262Z,79.15
2018-05-15T05:34:11.018Z,80.93
2018-05-15T05:36:41.841Z,79.53
2018-05-15T05:39:12.614Z,89.80
2018-05-15T05:41:43.710Z,92.90
2018-05-15T05:44:14.486Z,86.93
2018-05-15T05:46:45.322Z,88.43
2018-05-15T05:49:15.798Z,88.22
2018-05-15T05:51:46.234Z,84.32
2018-05-15T05:54:16.970Z,86.93
2018-05-15T05:56:47.966Z,85.15
2018-05-15T05:59:18.657Z,81.30
2018-05-15T06:01:49.499Z,89.18
2018-05-15T06:04:20.282Z,87.15
2018-05-15T06:06:51.819Z,83.32
2018-05-15T06:09:23.822Z,80.22
2018-05-15T06:11:56.909Z,88.25
2018-05-15T06:14:27.633Z,79.75
2018-05-15T06:16:59.042Z,81.07
2018-05-15T06:19:29.884Z,83.60
2018-05-15T06:22:01.088Z,82.80
2018-05-15T06:24:32.187Z,84.50
2018-05-15T06:27:03.199Z,84.00
2018-05-15T06:29:33.678Z,86.10
2018-05-15T06:32:05.162Z,85.40
2018-05-15T06:34:36.141Z,85.10
2018-05-15T06:37:06.773Z,83.82
2018-05-15T06:39:37.470Z,80.85
2018-05-15T06:42:08.289Z,85.95
2018-05-15T06:44:38.817Z,82.25
2018-05-15T06:47:09.909Z,89.60
2018-05-15T06:49:40.316Z,87.18
2018-05-15T06:52:11.464Z,87.03
2018-05-15T06:54:42.002Z,80.78
2018-05-15T06:57:13.011Z,81.80
2018-05-15T06:59:43.842Z,79.82
2018-05-15T07:02:14.625Z,86.75
2018-05-15T07:04:45.763Z,79.32
2018-05-15T07:07:16.821Z,86.97
2018-05-15T07:09:47.510Z,86.55
2018-05-15T07:12:18.218Z,79.25
2018-05-15T07:14:49.009Z,82.00
2018-05-15T07:17:19.745Z,86.40
2018-05-15T07:19:50.494Z,90.25
2018-05-15T07:22:21.210Z,92.70
2018-05-15T07:24:51.885Z,88.55
2018-05-15T07:27:22.935Z,85.68
2018-05-15T07:29:58.475Z,84.82
2018-05-15T07:32:29.549Z,88.65
2018-05-15T07:35:00.302Z,92.85
2018-05-15T07:37:35.430Z,88.93
2018-05-15T07:40:06.322Z,91.70
2018-05-15T07:42:37.321Z,87.32
2018-05-15T07:45:10.308Z,87.20
2018-05-15T07:47:41.089Z,85.57
2018-05-15T07:50:24.891Z,90.80
2018-05-15T07:52:55.729Z,92.88
2018-05-15T07:55:26.453Z,86.60
2018-05-15T07:57:57.633Z,93.47
2018-05-15T08:00:28.482Z,86.50
2018-05-15T08:02:59.335Z,85.50
2018-05-15T08:05:30.085Z,89.18
2018-05-15T08:08:01.201Z,84.57
2018-05-15T08:10:31.990Z,86.60
2018-05-15T08:13:05.086Z,94.78
2018-05-15T08:15:36.573Z,93.72
2018-05-15T08:18:08.657Z,85.90
2018-05-15T08:20:40.382Z,84.60
2018-05-15T08:23:12.156Z,82.80
2018-05-15T08:25:42.775Z,88.18
2018-05-15T08:28:13.500Z,89.80
2018-05-15T08:30:44.326Z,87.40
2018-05-15T08:33:16.711Z,86.47
2018-05-15T08:35:47.441Z,78.07
2018-05-15T08:38:18.546Z,90.07
2018-05-15T08:40:49.250Z,81.87
2018-05-15T08:43:19.979Z,86.37
2018-05-15T08:45:55.794Z,87.10
2018-05-15T08:48:26.934Z,87.95
2018-05-15T08:50:57.641Z,84.85
2018-05-15T08:53:40.845Z,88.15
2018-05-15T08:56:11.647Z,93.00
2018-05-15T08:58:42.498Z,86.60
2018-05-15T09:01:13.244Z,91.40
2018-05-15T09:03:44.221Z,80.43
2018-05-15T09:06:16.188Z,81.60
2018-05-15T09:08:47.870Z,82.47
2018-05-15T09:11:18.586Z,84.78
2018-05-15T09:13:49.814Z,89.05
2018-05-15T09:16:20.619Z,88.10
2018-05-15T09:18:52.833Z,85.50
2018-05-15T09:21:23.776Z,83.80
2018-05-15T09:23:54.621Z,85.85
2018-05-15T09:26:26.840Z,88.75
2018-05-15T09:28:57.253Z,86.37
2018-05-15T09:31:27.911Z,80.35
2018-05-15T09:33:58.742Z,86.35
2018-05-15T09:36:29.614Z,89.15
2018-05-15T09:39:00.341Z,90.72
2018-05-15T09:41:31.185Z,88.15
2018-05-15T09:44:01.893Z,85.97
2018-05-15T09:46:32.674Z,92.57
2018-05-15T09:49:03.864Z,89.97
2018-05-15T09:51:34.635Z,80.00
2018-05-15T09:54:12.889Z,87.55
2018-05-15T09:56:44.124Z,85.68
2018-05-15T09:59:14.978Z,90.82
2018-05-15T10:01:45.633Z,84.97
2018-05-15T10:04:16.430Z,86.82
2018-05-15T10:09:46.466Z,88.03
2018-05-15T10:12:17.439Z,87.78
2018-05-15T10:14:48.895Z,87.78
2018-05-15T10:17:19.619Z,89.62
2018-05-15T10:19:50.813Z,89.18
2018-05-15T10:22:21.582Z,86.90
2018-05-15T10:24:52.382Z,90.07
2018-05-15T10:27:23.161Z,88.57
2018-05-15T10:29:54.115Z,93.05
2018-05-15T10:32:24.906Z,91.78
2018-05-15T10:34:56.954Z,96.10
2018-05-15T10:37:27.755Z,93.43
2018-05-15T10:39:58.869Z,96.12
2018-05-15T10:42:29.449Z,100.78
2018-05-15T10:44:59.861Z,92.12
2018-05-15T10:47:30.899Z,93.35
2018-05-15T10:50:02.333Z,91.50
2018-05-15T10:52:33.022Z,86.05
2018-05-15T10:55:11.626Z,90.32
2018-05-15T10:57:42.380Z,88.28
2018-05-15T11:00:13.540Z,91.63
2018-05-15T11:02:44.442Z,93.32
2018-05-15T11:05:16.394Z,84.05
2018-05-15T11:07:47.906Z,93.18
2018-05-15T11:10:31.385Z,90.97
2018-05-15T11:13:02.281Z,94.90
2018-05-15T11:15:32.998Z,97.57
2018-05-15T11:18:15.442Z,92.53
2018-05-15T11:20:57.231Z,90.75
2018-05-15T11:23:42.201Z,93.10
2018-05-15T11:26:13.656Z,81.55
2018-05-15T11:28:45.214Z,93.55
2018-05-15T11:31:17.346Z,88.00
2018-05-15T11:33:48.482Z,87.18
2018-05-15T11:36:19.266Z,85.45
2018-05-15T11:38:49.752Z,84.70
2018-05-15T11:41:20.879Z,90.93
2018-05-15T11:43:52.230Z,94.50
2018-05-15T11:46:22.969Z,90.10
2018-05-15T11:48:54.095Z,87.57
2018-05-15T11:51:25.176Z,95.00
2018-05-15T11:53:55.130Z,89.75
2018-05-15T11:56:27.174Z,90.22
2018-05-15T11:58:57.781Z,91.90
2018-05-15T12:01:29.091Z,93.50
2018-05-15T12:03:59.830Z,91.03
2018-05-15T12:06:47.487Z,90.22
2018-05-15T12:09:18.317Z,84.57
2018-05-15T12:11:49.174Z,78.50
2018-05-15T12:14:19.990Z,81.95
2018-05-15T12:16:52.017Z,85.43
2018-05-15T12:19:22.862Z,88.07
2018-05-15T12:21:53.973Z,84.78
2018-05-15T12:24:24.720Z,82.60
2018-05-15T12:26:55.212Z,88.10
2018-05-15T12:29:26.374Z,84.47
2018-05-15T12:31:57.625Z,83.50
2018-05-15T12:34:28.426Z,81.68
2018-05-15T12:36:59.173Z,83.43
2018-05-15T12:39:29.930Z,91.80
2018-05-15T12:42:01.350Z,83.78
2018-05-15T12:44:32.808Z,86.40
2018-05-15T12:47:03.242Z,81.05
2018-05-15T12:49:33.968Z,87.82
2018-05-15T12:52:06.098Z,88.95
2018-05-15T12:54:36.900Z,85.40
2018-05-15T12:57:29.438Z,87.32
2018-05-15T13:00:00.212Z,85.22
2018-05-15T13:02:31.380Z,84.68
2018-05-15T13:05:04.030Z,87.57
2018-05-15T13:07:35.041Z,91.80
2018-05-15T13:10:05.944Z,80.28
2018-05-15T13:12:36.915Z,88.62
2018-05-15T13:15:07.982Z,88.55
2018-05-15T13:17:39.634Z,87.60
2018-05-15T13:20:11.493Z,88.85
2018-05-15T13:22:45.370Z,84.82
2018-05-15T13:25:15.775Z,85.12
2018-05-15T13:27:46.534Z,81.75
2018-05-15T13:30:17.802Z,86.53
2018-05-15T13:32:48.874Z,82.85
2018-05-15T13:35:19.787Z,86.72
2018-05-15T13:37:50.503Z,87.40
2018-05-15T13:40:23.661Z,90.93
2018-05-15T13:42:54.433Z,89.00
2018-05-15T13:45:25.158Z,82.43
2018-05-15T13:47:55.893Z,87.32
2018-05-15T13:50:27.474Z,84.95
2018-05-15T13:52:59.331Z,84.47
2018-05-15T13:55:33.633Z,85.55
2018-05-15T13:58:06.330Z,81.50
2018-05-15T14:00:37.231Z,85.18
2018-05-15T14:03:09.547Z,81.20
2018-05-15T14:05:40.278Z,96.25
2018-05-15T14:08:13.370Z,93.90
2018-05-15T14:10:43.921Z,91.80
2018-05-15T14:13:21.478Z,90.93
2018-05-15T14:15:52.216Z,86.82
2018-05-15T14:18:23.273Z,90.43
2018-05-15T14:21:08.559Z,89.78
2018-05-15T14:23:39.274Z,87.55
2018-05-15T14:26:09.954Z,91.53
2018-05-15T14:28:49.618Z,90.62
2018-05-15T14:31:20.414Z,95.75
2018-05-15T14:33:51.164Z,87.85
2018-05-15T14:36:22.059Z,97.85
2018-05-15T14:38:53.102Z,101.95
2018-05-15T14:41:32.598Z,102.95
2018-05-15T14:44:03.628Z,104.93
2018-05-15T14:46:34.368Z,96.40
2018-05-15T14:49:05.197Z,88.85
2018-05-15T14:51:48.243Z,90.75
2018-05-15T14:54:19.420Z,90.45
2018-05-15T14:56:50.289Z,92.80
2018-05-15T14:59:21.415Z,88.53
2018-05-15T15:01:51.933Z,87.07
2018-05-15T15:04:22.362Z,87.57
2018-05-15T15:06:52.777Z,85.35
2018-05-15T15:09:23.185Z,90.53
2018-05-15T15:11:53.946Z,86.65
2018-05-15T15:14:24.811Z,85.70
2018-05-15T15:16:55.593Z,87.88
2018-05-15T15:19:26.737Z,106.30
2018-05-15T15:21:57.487Z,99.07
2018-05-15T15:24:41.586Z,90.40
2018-05-15T15:27:11.998Z,91.72
2018-05-15T15:29:42.813Z,94.18
2018-05-15T15:32:13.557Z,91.28
2018-05-15T15:34:44.382Z,96.05
2018-05-15T15:37:15.717Z,91.15
2018-05-15T15:39:46.399Z,96.35
2018-05-15T15:42:17.226Z,85.45
2018-05-15T15:44:47.691Z,86.80
2018-05-15T15:47:18.148Z,92.78
2018-05-15T15:49:50.811Z,89.30
2018-05-15T15:52:21.822Z,87.05
2018-05-15T15:54:52.640Z,81.57
2018-05-15T15:57:23.408Z,84.47
2018-05-15T15:59:54.477Z,82.37
2018-05-15T16:02:25.373Z,80.95
2018-05-15T16:08:09.630Z,83.80
2018-05-15T16:10:40.421Z,82.65
2018-05-15T16:13:12.413Z,81.90
2018-05-15T16:15:43.633Z,84.82
2018-05-15T16:18:14.428Z,87.35
2018-05-15T16:20:46.558Z,83.93
2018-05-15T16:23:17.337Z,84.45
2018-05-15T16:25:48.158Z,82.28
2018-05-15T16:28:33.920Z,79.45
2018-05-15T16:31:05.009Z,79.28
2018-05-15T16:33:35.426Z,80.40
2018-05-15T16:36:06.321Z,79.40
2018-05-15T16:38:36.746Z,82.85
2018-05-15T16:41:07.182Z,85.20
2018-05-15T16:43:37.581Z,87.15
2018-05-15T16:46:07.997Z,81.28
2018-05-15T16:48:38.446Z,82.90
2018-05-15T16:51:08.844Z,75.25
2018-05-15T16:53:39.643Z,76.85
2018-05-15T16:59:05.822Z,83.40
2018-05-15T17:01:36.830Z,84.72
2018-05-15T17:04:07.628Z,85.87
2018-05-15T17:06:38.462Z,85.47
2018-05-15T17:09:09.245Z,88.25
2018-05-15T17:12:01.183Z,87.82
2018-05-15T17:14:32.156Z,86.95
2018-05-15T17:17:03.112Z,83.30
2018-05-15T17:19:34.793Z,88.55
2018-05-15T17:22:06.188Z,85.70
2018-05-15T17:24:37.120Z,82.37
2018-05-15T17:27:09.243Z,85.62
2018-05-15T17:29:40.043Z,81.70
2018-05-15T17:32:11.289Z,86.22
2018-05-15T17:34:42.085Z,85.62
2018-05-15T17:37:13.061Z,84.87
2018-05-15T17:39:43.724Z,78.87
2018-05-15T17:42:20.716Z,86.12
2018-05-15T17:44:51.590Z,84.68
2018-05-15T17:47:22.697Z,78.85
2018-05-15T17:49:53.329Z,76.12
2018-05-15T17:52:24.045Z,83.72
2018-05-15T17:54:54.856Z,83.45
2018-05-15T17:57:26.957Z,77.82
2018-05-15T17:59:57.615Z,81.97
2018-05-15T18:02:28.377Z,80.70
2018-05-15T18:04:58.785Z,86.47
2018-05-15T18:07:29.405Z,87.70
2018-05-15T18:10:01.169Z,113.70
2018-05-15T18:15:32.672Z,97.28
2018-05-15T18:18:05.829Z,96.03
2018-05-15T18:20:38.533Z,90.12
2018-05-15T18:23:10.577Z,88.18
2018-05-15T18:25:41.239Z,85.68
2018-05-15T18:28:12.324Z,82.62
2018-05-15T18:30:44.534Z,82.68
2018-05-15T18:33:15.321Z,85.68
2018-05-15T18:35:46.119Z,90.97
2018-05-15T18:38:19.446Z,88.25
2018-05-15T18:40:50.626Z,87.53
2018-05-15T18:43:22.321Z,83.93
2018-05-15T18:45:53.117Z,84.97
2018-05-15T18:48:24.347Z,80.50
2018-05-15T18:50:56.364Z,87.57
2018-05-15T18:53:27.153Z,84.55
2018-05-15T18:55:58.783Z,87.50
2018-05-15T18:58:29.314Z,82.53
2018-05-15T19:00:59.715Z,90.43
2018-05-15T19:03:30.746Z,85.95
2018-05-15T19:06:01.361Z,85.15
2018-05-15T19:08:33.849Z,88.55
2018-05-15T19:11:04.876Z,86.20
2018-05-15T19:13:35.610Z,81.28
2018-05-15T19:16:06.605Z,88.62
2018-05-15T19:18:39.289Z,91.95
2018-05-15T19:21:10.098Z,87.78
2018-05-15T19:23:41.262Z,86.60
2018-05-15T19:26:11.909Z,82.47
2018-05-15T19:28:43.204Z,85.72
2018-05-15T19:31:22.661Z,101.47
2018-05-15T19:33:53.786Z,89.68
2018-05-15T19:36:28.750Z,81.50
2018-05-15T19:39:04.053Z,78.50
2018-05-15T19:41:36.905Z,87.07
2018-05-15T19:44:08.597Z,85.87
2018-05-15T19:46:39.417Z,82.65
2018-05-15T19:49:10.432Z,81.00
2018-05-15T19:51:41.522Z,79.93
2018-05-15T19:54:12.227Z,80.28
2018-05-15T19:56:42.814Z,88.20
2018-05-15T19:59:13.444Z,83.47
2018-05-15T20:01:44.245Z,83.07
2018-05-15T20:04:14.665Z,80.55
2018-05-15T20:06:45.361Z,80.87
2018-05-15T20:09:27.862Z,78.32
2018-05-15T20:11:58.385Z,80.85
2018-05-15T20:14:29.508Z,78.57
2018-05-15T20:17:12.868Z,86.75
2018-05-15T20:19:43.561Z,86.57
2018-05-15T20:22:14.326Z,87.30
2018-05-15T20:24:45.418Z,93.25
2018-05-15T20:27:16.282Z,84.72
2018-05-15T20:29:47.110Z,91.03
2018-05-15T20:32:17.877Z,84.60
2018-05-15T20:34:50.805Z,93.28
2018-05-15T20:37:21.648Z,83.95
2018-05-15T20:39:52.704Z,91.03
2018-05-15T20:42:23.537Z,94.68
2018-05-15T20:44:55.110Z,94.47
2018-05-15T20:47:33.132Z,90.55
2018-05-15T20:50:04.399Z,104.82
2018-05-15T20:52:35.086Z,89.70
2018-05-15T20:55:06.187Z,86.07
2018-05-15T20:57:37.110Z,89.00
2018-05-15T21:00:08.839Z,88.18
2018-05-15T21:02:40.178Z,81.82
2018-05-15T21:05:12.398Z,83.53
2018-05-15T21:07:43.245Z,84.25
2018-05-15T21:10:16.194Z,83.57
2018-05-15T21:12:47.066Z,85.68
2018-05-15T21:15:20.351Z,89.20
2018-05-15T21:17:56.814Z,86.90
2018-05-15T21:20:29.413Z,88.22
2018-05-15T21:23:00.110Z,93.03
2018-05-15T21:25:32.574Z,90.50
2018-05-15T21:28:04.270Z,91.68
2018-05-15T21:30:35.289Z,91.97
2018-05-15T21:33:05.749Z,92.43
2018-05-15T21:35:37.666Z,88.47
2018-05-15T21:38:09.422Z,97.60
2018-05-15T21:40:39.846Z,94.00
2018-05-15T21:43:11.185Z,95.45
2018-05-15T21:45:41.758Z,96.18
2018-05-15T21:48:12.211Z,90.60
2018-05-15T21:50:43.357Z,91.78
2018-05-15T21:53:14.824Z,108.47
2018-05-15T21:55:45.623Z,102.28
2018-05-15T21:58:21.293Z,95.50
2018-05-15T22:00:52.101Z,97.72
2018-05-15T22:03:22.770Z,92.75
2018-05-15T22:05:53.780Z,95.43
2018-05-15T22:08:24.489Z,94.57
2018-05-15T22:10:55.514Z,95.70
2018-05-15T22:13:37.481Z,94.35
2018-05-15T22:16:25.123Z,92.62
2018-05-15T22:19:12.470Z,95.60
2018-05-15T22:22:00.766Z,95.10
2018-05-15T22:24:37.484Z,89.10
2018-05-15T22:27:08.810Z,95.15
2018-05-15T22:29:39.654Z,93.28
2018-05-15T22:32:10.478Z,99.55
2018-05-15T22:34:41.627Z,94.35
2018-05-15T22:37:12.491Z,86.95
2018-05-15T22:39:43.231Z,88.85
2018-05-15T22:42:15.034Z,88.80
2018-05-15T22:44:45.840Z,86.47
2018-05-15T22:47:16.796Z,92.30
2018-05-15T22:49:47.561Z,93.37
2018-05-15T22:52:18.460Z,87.68
2018-05-15T22:54:56.098Z,83.70
2018-05-15T22:57:26.953Z,86.63
2018-05-15T22:59:57.616Z,89.50
2018-05-15T23:02:28.301Z,91.00
2018-05-15T23:04:59.089Z,90.53
2018-05-15T23:07:32.600Z,93.60
2018-05-15T23:10:04.125Z,97.65
2018-05-15T23:12:35.077Z,93.60
2018-05-15T23:18:05.353Z,96.57
2018-05-15T23:20:37.633Z,92.43
2018-05-15T23:23:10.765Z,95.43
2018-05-15T23:25:41.601Z,92.57
2018-05-15T23:28:14.629Z,100.45
2018-05-15T23:30:45.525Z,90.32
2018-05-15T23:33:18.746Z,95.65
2018-05-15T23:35:55.672Z,98.22
2018-05-15T23:38:26.533Z,99.00
2018-05-15T23:40:57.203Z,95.43
2018-05-15T23:43:28.166Z,90.97
2018-05-15T23:45:59.066Z,90.40
2018-05-15T23:48:33.473Z,86.45
2018-05-15T23:51:04.702Z,87.60
2018-05-15T23:53:38.780Z,95.87
2018-05-15T23:56:10.142Z,95.72
2018-05-15T23:58:40.993Z,89.60
